Terminal Aerodrome Forecast
Issued by NWS Duluth, MN

Home | Current Version | Previous Version | Text Only | Print | Product List | Glossary On
Versions: 1 2 3 4 5 6 7 8 9 10 11 12 13 14 15 16 17
000
FTUS43 KDLH 221727
TAFINL
TAF
KINL 221727Z 2218/2318 15004KT P6SM OVC015
      TEMPO 2218/2219 SCT015 BKN040
     FM221900 26009KT P6SM VCSH BKN040
      TEMPO 2220/2222 6SM TSRA BKN030CB
     FM230300 30005KT P6SM VCTS BKN040CB
     FM230700 00000KT 4SM BR BKN030
     FM231400 36010KT P6SM SCT030=

USA.gov is the U.S. government's official web portal to all federal, state and local government web resources and services.